sensor_id;sensor_type;location;lat;lon;timestamp;P1;durP1;ratioP1;P2;durP2;ratioP2
2474;SDS011;1248;48.694;10.160;2023-07-28T00:02:02;5.23;;;4.00;;
2474;SDS011;1248;48.694;10.160;2023-07-28T00:04:31;5.10;;;4.20;;
2474;SDS011;1248;48.694;10.160;2023-07-28T00:07:00;7.70;;;4.07;;
2474;SDS011;1248;48.694;10.160;2023-07-28T00:09:27;4.00;;;3.70;;
2474;SDS011;1248;48.694;10.160;2023-07-28T00:11:56;6.67;;;4.00;;
2474;SDS011;1248;48.694;10.160;2023-07-28T00:14:23;3.87;;;3.53;;
2474;SDS011;1248;48.694;10.160;2023-07-28T00:16:51;4.30;;;3.30;;
2474;SDS011;1248;48.694;10.160;2023-07-28T00:19:18;5.07;;;4.00;;
2474;SDS011;1248;48.694;10.160;2023-07-28T00:21:48;6.27;;;4.07;;
2474;SDS011;1248;48.694;10.160;2023-07-28T00:24:15;4.60;;;4.20;;
2474;SDS011;1248;48.694;10.160;2023-07-28T00:26:42;6.80;;;5.03;;
2474;SDS011;1248;48.694;10.160;2023-07-28T00:29:09;4.47;;;4.07;;
2474;SDS011;1248;48.694;10.160;2023-07-28T00:31:36;4.23;;;3.83;;
2474;SDS011;1248;48.694;10.160;2023-07-28T00:34:04;4.93;;;4.30;;
2474;SDS011;1248;48.694;10.160;2023-07-28T00:36:31;6.23;;;3.90;;
2474;SDS011;1248;48.694;10.160;2023-07-28T00:38:59;4.43;;;4.00;;
2474;SDS011;1248;48.694;10.160;2023-07-28T00:41:26;8.30;;;4.77;;
2474;SDS011;1248;48.694;10.160;2023-07-28T00:43:53;5.63;;;4.40;;
2474;SDS011;1248;48.694;10.160;2023-07-28T00:46:20;4.27;;;3.70;;
2474;SDS011;1248;48.694;10.160;2023-07-28T00:48:48;4.70;;;4.20;;
2474;SDS011;1248;48.694;10.160;2023-07-28T00:51:15;4.93;;;3.73;;
2474;SDS011;1248;48.694;10.160;2023-07-28T00:53:42;8.50;;;4.80;;
2474;SDS011;1248;48.694;10.160;2023-07-28T00:56:11;5.27;;;4.50;;
2474;SDS011;1248;48.694;10.160;2023-07-28T00:58:38;4.77;;;4.27;;
2474;SDS011;1248;48.694;10.160;2023-07-28T01:01:05;6.73;;;4.00;;
2474;SDS011;1248;48.694;10.160;2023-07-28T01:03:32;7.13;;;5.03;;
2474;SDS011;1248;48.694;10.160;2023-07-28T01:06:02;5.43;;;3.90;;
2474;SDS011;1248;48.694;10.160;2023-07-28T01:08:38;5.67;;;4.10;;
2474;SDS011;1248;48.694;10.160;2023-07-28T01:11:10;5.33;;;4.50;;
2474;SDS011;1248;48.694;10.160;2023-07-28T01:13:37;8.10;;;5.20;;
2474;SDS011;1248;48.694;10.160;2023-07-28T01:16:04;11.83;;;5.10;;
2474;SDS011;1248;48.694;10.160;2023-07-28T01:18:31;4.63;;;3.83;;
2474;SDS011;1248;48.694;10.160;2023-07-28T01:20:59;5.50;;;4.40;;
2474;SDS011;1248;48.694;10.160;2023-07-28T01:23:30;5.00;;;4.50;;
2474;SDS011;1248;48.694;10.160;2023-07-28T01:26:05;14.27;;;4.53;;
2474;SDS011;1248;48.694;10.160;2023-07-28T01:28:36;4.20;;;3.53;;
2474;SDS011;1248;48.694;10.160;2023-07-28T01:31:03;8.13;;;4.20;;
2474;SDS011;1248;48.694;10.160;2023-07-28T01:33:31;5.10;;;4.13;;
2474;SDS011;1248;48.694;10.160;2023-07-28T01:35:58;4.70;;;4.20;;
2474;SDS011;1248;48.694;10.160;2023-07-28T01:38:26;5.70;;;5.17;;
2474;SDS011;1248;48.694;10.160;2023-07-28T01:40:54;12.90;;;5.10;;
2474;SDS011;1248;48.694;10.160;2023-07-28T01:43:21;7.17;;;4.90;;
2474;SDS011;1248;48.694;10.160;2023-07-28T01:45:49;5.27;;;4.40;;
2474;SDS011;1248;48.694;10.160;2023-07-28T01:48:16;5.23;;;4.37;;
2474;SDS011;1248;48.694;10.160;2023-07-28T01:50:43;4.70;;;4.30;;
2474;SDS011;1248;48.694;10.160;2023-07-28T01:53:10;6.60;;;4.80;;
2474;SDS011;1248;48.694;10.160;2023-07-28T01:55:37;9.60;;;4.50;;
2474;SDS011;1248;48.694;10.160;2023-07-28T01:58:04;5.80;;;3.97;;
2474;SDS011;1248;48.694;10.160;2023-07-28T02:00:31;5.03;;;4.53;;
2474;SDS011;1248;48.694;10.160;2023-07-28T02:03:00;8.50;;;4.57;;
2474;SDS011;1248;48.694;10.160;2023-07-28T02:05:28;7.80;;;4.90;;
2474;SDS011;1248;48.694;10.160;2023-07-28T02:07:55;8.17;;;4.50;;
2474;SDS011;1248;48.694;10.160;2023-07-28T02:10:23;7.20;;;4.53;;
2474;SDS011;1248;48.694;10.160;2023-07-28T02:12:50;4.90;;;3.73;;
2474;SDS011;1248;48.694;10.160;2023-07-28T02:15:17;5.23;;;4.60;;
2474;SDS011;1248;48.694;10.160;2023-07-28T02:17:45;6.10;;;4.30;;
2474;SDS011;1248;48.694;10.160;2023-07-28T02:20:13;5.70;;;4.20;;
2474;SDS011;1248;48.694;10.160;2023-07-28T02:22:41;6.37;;;4.57;;
2474;SDS011;1248;48.694;10.160;2023-07-28T02:25:08;6.17;;;4.63;;
2474;SDS011;1248;48.694;10.160;2023-07-28T02:27:36;6.47;;;4.40;;
2474;SDS011;1248;48.694;10.160;2023-07-28T02:30:03;8.90;;;4.33;;
2474;SDS011;1248;48.694;10.160;2023-07-28T02:32:31;5.47;;;4.17;;
2474;SDS011;1248;48.694;10.160;2023-07-28T02:34:58;5.67;;;4.80;;
2474;SDS011;1248;48.694;10.160;2023-07-28T02:37:27;5.30;;;4.13;;
2474;SDS011;1248;48.694;10.160;2023-07-28T02:39:54;5.10;;;4.60;;
2474;SDS011;1248;48.694;10.160;2023-07-28T02:42:21;6.87;;;4.60;;
2474;SDS011;1248;48.694;10.160;2023-07-28T02:44:49;7.13;;;4.60;;
2474;SDS011;1248;48.694;10.160;2023-07-28T02:47:16;4.30;;;3.90;;
2474;SDS011;1248;48.694;10.160;2023-07-28T02:49:43;7.73;;;3.47;;
2474;SDS011;1248;48.694;10.160;2023-07-28T02:52:11;7.07;;;4.43;;
2474;SDS011;1248;48.694;10.160;2023-07-28T02:54:39;4.87;;;4.20;;
2474;SDS011;1248;48.694;10.160;2023-07-28T02:57:06;8.37;;;5.10;;
2474;SDS011;1248;48.694;10.160;2023-07-28T02:59:33;6.80;;;4.47;;
2474;SDS011;1248;48.694;10.160;2023-07-28T03:02:00;6.77;;;4.47;;
2474;SDS011;1248;48.694;10.160;2023-07-28T03:04:27;6.60;;;4.60;;
2474;SDS011;1248;48.694;10.160;2023-07-28T03:06:54;5.23;;;4.23;;
2474;SDS011;1248;48.694;10.160;2023-07-28T03:09:22;8.03;;;4.67;;
2474;SDS011;1248;48.694;10.160;2023-07-28T03:11:50;6.03;;;4.37;;
2474;SDS011;1248;48.694;10.160;2023-07-28T03:14:17;5.90;;;4.40;;
2474;SDS011;1248;48.694;10.160;2023-07-28T03:16:44;8.20;;;4.40;;
2474;SDS011;1248;48.694;10.160;2023-07-28T03:19:11;6.13;;;4.20;;
2474;SDS011;1248;48.694;10.160;2023-07-28T03:21:38;4.40;;;3.87;;
2474;SDS011;1248;48.694;10.160;2023-07-28T03:24:05;5.33;;;4.07;;
2474;SDS011;1248;48.694;10.160;2023-07-28T03:26:32;5.73;;;4.83;;
2474;SDS011;1248;48.694;10.160;2023-07-28T03:29:01;9.03;;;4.57;;
2474;SDS011;1248;48.694;10.160;2023-07-28T03:31:28;12.93;;;4.80;;
2474;SDS011;1248;48.694;10.160;2023-07-28T03:33:55;7.53;;;4.57;;
2474;SDS011;1248;48.694;10.160;2023-07-28T03:36:22;8.83;;;4.17;;
2474;SDS011;1248;48.694;10.160;2023-07-28T03:38:49;7.20;;;4.60;;
2474;SDS011;1248;48.694;10.160;2023-07-28T03:41:16;5.00;;;4.50;;
2474;SDS011;1248;48.694;10.160;2023-07-28T03:43:43;6.73;;;5.37;;
2474;SDS011;1248;48.694;10.160;2023-07-28T03:46:11;7.40;;;5.00;;
2474;SDS011;1248;48.694;10.160;2023-07-28T03:48:38;9.30;;;6.67;;
2474;SDS011;1248;48.694;10.160;2023-07-28T03:51:05;15.00;;;8.47;;
2474;SDS011;1248;48.694;10.160;2023-07-28T03:53:32;13.57;;;8.10;;
2474;SDS011;1248;48.694;10.160;2023-07-28T03:56:01;14.30;;;8.40;;
2474;SDS011;1248;48.694;10.160;2023-07-28T03:58:28;17.03;;;8.60;;
2474;SDS011;1248;48.694;10.160;2023-07-28T04:00:55;11.70;;;7.00;;
2474;SDS011;1248;48.694;10.160;2023-07-28T04:03:24;8.97;;;6.20;;
2474;SDS011;1248;48.694;10.160;2023-07-28T04:05:51;12.70;;;7.53;;
2474;SDS011;1248;48.694;10.160;2023-07-28T04:08:18;13.37;;;7.87;;
2474;SDS011;1248;48.694;10.160;2023-07-28T04:10:45;14.37;;;7.57;;
2474;SDS011;1248;48.694;10.160;2023-07-28T04:13:12;14.90;;;8.20;;
2474;SDS011;1248;48.694;10.160;2023-07-28T04:15:39;17.03;;;8.97;;
2474;SDS011;1248;48.694;10.160;2023-07-28T04:18:06;12.60;;;7.97;;
2474;SDS011;1248;48.694;10.160;2023-07-28T04:20:35;14.80;;;7.30;;
2474;SDS011;1248;48.694;10.160;2023-07-28T04:23:02;11.80;;;6.77;;
2474;SDS011;1248;48.694;10.160;2023-07-28T04:25:29;10.97;;;7.27;;
2474;SDS011;1248;48.694;10.160;2023-07-28T04:27:56;9.40;;;6.47;;
2474;SDS011;1248;48.694;10.160;2023-07-28T04:30:23;9.70;;;6.47;;
2474;SDS011;1248;48.694;10.160;2023-07-28T04:32:50;8.10;;;5.30;;
2474;SDS011;1248;48.694;10.160;2023-07-28T04:35:17;11.70;;;6.93;;
2474;SDS011;1248;48.694;10.160;2023-07-28T04:37:45;5.70;;;4.47;;
2474;SDS011;1248;48.694;10.160;2023-07-28T04:40:12;6.40;;;5.40;;
2474;SDS011;1248;48.694;10.160;2023-07-28T04:42:39;8.70;;;6.07;;
2474;SDS011;1248;48.694;10.160;2023-07-28T04:45:07;6.67;;;4.80;;
2474;SDS011;1248;48.694;10.160;2023-07-28T04:47:34;5.83;;;5.23;;
2474;SDS011;1248;48.694;10.160;2023-07-28T04:50:01;6.50;;;5.33;;
2474;SDS011;1248;48.694;10.160;2023-07-28T04:52:28;9.63;;;5.43;;
2474;SDS011;1248;48.694;10.160;2023-07-28T04:54:57;8.17;;;6.10;;
2474;SDS011;1248;48.694;10.160;2023-07-28T04:57:24;9.07;;;5.00;;
2474;SDS011;1248;48.694;10.160;2023-07-28T04:59:51;6.40;;;4.77;;
2474;SDS011;1248;48.694;10.160;2023-07-28T05:02:18;6.03;;;5.43;;
2474;SDS011;1248;48.694;10.160;2023-07-28T05:04:45;7.03;;;5.30;;
2474;SDS011;1248;48.694;10.160;2023-07-28T05:07:12;8.40;;;4.97;;
2474;SDS011;1248;48.694;10.160;2023-07-28T05:09:39;6.67;;;5.13;;
2474;SDS011;1248;48.694;10.160;2023-07-28T05:12:08;8.73;;;4.80;;
2474;SDS011;1248;48.694;10.160;2023-07-28T05:14:35;6.10;;;4.50;;
2474;SDS011;1248;48.694;10.160;2023-07-28T05:17:02;8.80;;;5.27;;
2474;SDS011;1248;48.694;10.160;2023-07-28T05:19:29;11.00;;;4.97;;
2474;SDS011;1248;48.694;10.160;2023-07-28T05:21:56;5.30;;;4.60;;
2474;SDS011;1248;48.694;10.160;2023-07-28T05:24:24;7.80;;;4.20;;
2474;SDS011;1248;48.694;10.160;2023-07-28T05:26:51;7.03;;;4.60;;
2474;SDS011;1248;48.694;10.160;2023-07-28T05:29:19;6.43;;;4.10;;
2474;SDS011;1248;48.694;10.160;2023-07-28T05:31:46;5.90;;;4.37;;
2474;SDS011;1248;48.694;10.160;2023-07-28T05:34:13;4.73;;;4.10;;
2474;SDS011;1248;48.694;10.160;2023-07-28T05:36:40;5.70;;;4.30;;
2474;SDS011;1248;48.694;10.160;2023-07-28T05:39:07;6.43;;;4.40;;
2474;SDS011;1248;48.694;10.160;2023-07-28T05:41:34;7.47;;;3.77;;
2474;SDS011;1248;48.694;10.160;2023-07-28T05:44:01;4.47;;;4.00;;
2474;SDS011;1248;48.694;10.160;2023-07-28T05:46:30;7.47;;;4.87;;
2474;SDS011;1248;48.694;10.160;2023-07-28T05:48:57;4.03;;;3.70;;
2474;SDS011;1248;48.694;10.160;2023-07-28T05:51:24;9.27;;;4.83;;
2474;SDS011;1248;48.694;10.160;2023-07-28T05:53:52;6.93;;;3.73;;
2474;SDS011;1248;48.694;10.160;2023-07-28T05:56:19;5.53;;;4.10;;
2474;SDS011;1248;48.694;10.160;2023-07-28T05:58:46;4.50;;;4.10;;
2474;SDS011;1248;48.694;10.160;2023-07-28T06:01:13;8.70;;;4.10;;
2474;SDS011;1248;48.694;10.160;2023-07-28T06:03:42;5.93;;;4.93;;
2474;SDS011;1248;48.694;10.160;2023-07-28T06:06:09;6.13;;;4.67;;
2474;SDS011;1248;48.694;10.160;2023-07-28T06:08:36;6.80;;;4.53;;
2474;SDS011;1248;48.694;10.160;2023-07-28T06:11:03;7.67;;;4.77;;
2474;SDS011;1248;48.694;10.160;2023-07-28T06:13:30;6.83;;;4.90;;
2474;SDS011;1248;48.694;10.160;2023-07-28T06:15:58;7.47;;;4.93;;
2474;SDS011;1248;48.694;10.160;2023-07-28T06:18:25;7.70;;;4.77;;
2474;SDS011;1248;48.694;10.160;2023-07-28T06:20:53;5.77;;;5.07;;
2474;SDS011;1248;48.694;10.160;2023-07-28T06:23:20;6.63;;;4.97;;
2474;SDS011;1248;48.694;10.160;2023-07-28T06:25:47;6.30;;;4.93;;
2474;SDS011;1248;48.694;10.160;2023-07-28T06:28:14;6.30;;;4.67;;
2474;SDS011;1248;48.694;10.160;2023-07-28T06:30:42;7.40;;;5.30;;
2474;SDS011;1248;48.694;10.160;2023-07-28T06:33:09;6.90;;;4.70;;
2474;SDS011;1248;48.694;10.160;2023-07-28T06:35:36;8.17;;;5.13;;
2474;SDS011;1248;48.694;10.160;2023-07-28T06:38:05;7.47;;;4.77;;
2474;SDS011;1248;48.694;10.160;2023-07-28T06:40:32;5.97;;;5.37;;
2474;SDS011;1248;48.694;10.160;2023-07-28T06:43:00;5.90;;;5.30;;
2474;SDS011;1248;48.694;10.160;2023-07-28T06:45:27;6.70;;;5.47;;
2474;SDS011;1248;48.694;10.160;2023-07-28T06:47:54;8.40;;;6.13;;
2474;SDS011;1248;48.694;10.160;2023-07-28T06:50:21;8.23;;;5.50;;
2474;SDS011;1248;48.694;10.160;2023-07-28T06:52:49;10.53;;;5.27;;
2474;SDS011;1248;48.694;10.160;2023-07-28T06:55:17;5.40;;;4.60;;
2474;SDS011;1248;48.694;10.160;2023-07-28T06:57:47;6.60;;;4.43;;
2474;SDS011;1248;48.694;10.160;2023-07-28T07:00:15;7.67;;;5.33;;
2474;SDS011;1248;48.694;10.160;2023-07-28T07:02:43;5.60;;;5.00;;
2474;SDS011;1248;48.694;10.160;2023-07-28T07:05:10;4.83;;;4.37;;
2474;SDS011;1248;48.694;10.160;2023-07-28T07:07:38;9.20;;;5.10;;
2474;SDS011;1248;48.694;10.160;2023-07-28T07:10:06;6.20;;;4.93;;
2474;SDS011;1248;48.694;10.160;2023-07-28T07:12:36;8.13;;;5.37;;
2474;SDS011;1248;48.694;10.160;2023-07-28T07:15:04;5.93;;;4.60;;
2474;SDS011;1248;48.694;10.160;2023-07-28T07:17:32;7.00;;;4.60;;
2474;SDS011;1248;48.694;10.160;2023-07-28T07:20:00;4.17;;;3.70;;
2474;SDS011;1248;48.694;10.160;2023-07-28T07:22:27;4.50;;;4.00;;
2474;SDS011;1248;48.694;10.160;2023-07-28T07:24:54;5.33;;;4.83;;
2474;SDS011;1248;48.694;10.160;2023-07-28T07:27:23;5.47;;;4.20;;
2474;SDS011;1248;48.694;10.160;2023-07-28T07:29:52;5.03;;;4.00;;
2474;SDS011;1248;48.694;10.160;2023-07-28T07:32:19;7.70;;;5.07;;
2474;SDS011;1248;48.694;10.160;2023-07-28T07:34:46;8.63;;;4.50;;
2474;SDS011;1248;48.694;10.160;2023-07-28T07:37:13;5.60;;;4.37;;
2474;SDS011;1248;48.694;10.160;2023-07-28T07:39:40;5.60;;;4.13;;
2474;SDS011;1248;48.694;10.160;2023-07-28T07:42:09;7.03;;;4.63;;
2474;SDS011;1248;48.694;10.160;2023-07-28T07:44:36;6.00;;;3.80;;
2474;SDS011;1248;48.694;10.160;2023-07-28T07:47:12;6.27;;;4.37;;
2474;SDS011;1248;48.694;10.160;2023-07-28T07:49:40;5.53;;;4.20;;
2474;SDS011;1248;48.694;10.160;2023-07-28T07:52:07;4.60;;;4.10;;
2474;SDS011;1248;48.694;10.160;2023-07-28T07:54:34;8.30;;;4.53;;
2474;SDS011;1248;48.694;10.160;2023-07-28T07:57:01;4.77;;;4.30;;
2474;SDS011;1248;48.694;10.160;2023-07-28T07:59:29;7.97;;;4.93;;
2474;SDS011;1248;48.694;10.160;2023-07-28T08:01:58;4.83;;;4.17;;
2474;SDS011;1248;48.694;10.160;2023-07-28T08:04:30;7.57;;;4.00;;
2474;SDS011;1248;48.694;10.160;2023-07-28T08:06:57;5.50;;;4.87;;
2474;SDS011;1248;48.694;10.160;2023-07-28T08:09:24;7.20;;;4.20;;
2474;SDS011;1248;48.694;10.160;2023-07-28T08:11:51;7.60;;;4.40;;
2474;SDS011;1248;48.694;10.160;2023-07-28T08:14:19;5.90;;;4.73;;
2474;SDS011;1248;48.694;10.160;2023-07-28T08:16:46;4.73;;;3.50;;
2474;SDS011;1248;48.694;10.160;2023-07-28T08:19:13;4.67;;;4.17;;
2474;SDS011;1248;48.694;10.160;2023-07-28T08:21:42;6.07;;;3.90;;
2474;SDS011;1248;48.694;10.160;2023-07-28T08:24:09;6.70;;;3.80;;
2474;SDS011;1248;48.694;10.160;2023-07-28T08:26:37;6.20;;;4.20;;
2474;SDS011;1248;48.694;10.160;2023-07-28T08:29:04;5.50;;;3.80;;
2474;SDS011;1248;48.694;10.160;2023-07-28T08:31:31;3.60;;;3.30;;
2474;SDS011;1248;48.694;10.160;2023-07-28T08:33:58;6.43;;;3.70;;
2474;SDS011;1248;48.694;10.160;2023-07-28T08:36:25;4.67;;;3.20;;
2474;SDS011;1248;48.694;10.160;2023-07-28T08:38:54;7.37;;;3.60;;
2474;SDS011;1248;48.694;10.160;2023-07-28T08:41:21;3.90;;;3.30;;
2474;SDS011;1248;48.694;10.160;2023-07-28T08:43:48;7.20;;;4.17;;
2474;SDS011;1248;48.694;10.160;2023-07-28T08:46:16;14.63;;;4.20;;
2474;SDS011;1248;48.694;10.160;2023-07-28T08:48:43;4.33;;;3.30;;
2474;SDS011;1248;48.694;10.160;2023-07-28T08:51:11;5.57;;;3.87;;
2474;SDS011;1248;48.694;10.160;2023-07-28T08:53:39;5.77;;;3.10;;
2474;SDS011;1248;48.694;10.160;2023-07-28T08:56:08;4.13;;;3.40;;
2474;SDS011;1248;48.694;10.160;2023-07-28T08:58:35;4.43;;;3.70;;
2474;SDS011;1248;48.694;10.160;2023-07-28T09:01:02;5.70;;;4.27;;
2474;SDS011;1248;48.694;10.160;2023-07-28T09:03:30;7.50;;;4.67;;
2474;SDS011;1248;48.694;10.160;2023-07-28T09:05:59;6.23;;;3.80;;
2474;SDS011;1248;48.694;10.160;2023-07-28T09:08:28;4.90;;;3.27;;
2474;SDS011;1248;48.694;10.160;2023-07-28T09:10:57;6.20;;;3.87;;
2474;SDS011;1248;48.694;10.160;2023-07-28T09:13:35;4.00;;;3.07;;
2474;SDS011;1248;48.694;10.160;2023-07-28T09:16:03;3.30;;;2.93;;
2474;SDS011;1248;48.694;10.160;2023-07-28T09:18:30;10.97;;;3.10;;
2474;SDS011;1248;48.694;10.160;2023-07-28T09:20:57;5.23;;;3.57;;
2474;SDS011;1248;48.694;10.160;2023-07-28T09:23:27;4.80;;;3.50;;
2474;SDS011;1248;48.694;10.160;2023-07-28T09:25:58;4.50;;;3.40;;
2474;SDS011;1248;48.694;10.160;2023-07-28T09:28:37;6.80;;;3.40;;
2474;SDS011;1248;48.694;10.160;2023-07-28T09:31:04;3.50;;;2.60;;
2474;SDS011;1248;48.694;10.160;2023-07-28T09:33:32;3.90;;;3.30;;
2474;SDS011;1248;48.694;10.160;2023-07-28T09:36:06;4.23;;;3.13;;
2474;SDS011;1248;48.694;10.160;2023-07-28T09:38:36;3.50;;;2.90;;
2474;SDS011;1248;48.694;10.160;2023-07-28T09:41:03;4.93;;;2.97;;
2474;SDS011;1248;48.694;10.160;2023-07-28T09:43:33;3.80;;;3.40;;
2474;SDS011;1248;48.694;10.160;2023-07-28T09:46:02;5.53;;;3.37;;
2474;SDS011;1248;48.694;10.160;2023-07-28T09:48:32;2.57;;;2.37;;
2474;SDS011;1248;48.694;10.160;2023-07-28T09:51:00;3.60;;;2.77;;
2474;SDS011;1248;48.694;10.160;2023-07-28T09:53:30;3.63;;;2.80;;
2474;SDS011;1248;48.694;10.160;2023-07-28T09:55:58;2.83;;;2.53;;
2474;SDS011;1248;48.694;10.160;2023-07-28T09:58:25;5.43;;;2.73;;
2474;SDS011;1248;48.694;10.160;2023-07-28T10:00:53;5.93;;;2.50;;
2474;SDS011;1248;48.694;10.160;2023-07-28T10:03:22;3.83;;;1.87;;
2474;SDS011;1248;48.694;10.160;2023-07-28T10:05:49;3.97;;;2.60;;
2474;SDS011;1248;48.694;10.160;2023-07-28T10:08:16;4.63;;;3.00;;
2474;SDS011;1248;48.694;10.160;2023-07-28T10:10:43;4.40;;;2.80;;
2474;SDS011;1248;48.694;10.160;2023-07-28T10:13:18;3.60;;;2.10;;
2474;SDS011;1248;48.694;10.160;2023-07-28T10:15:46;3.47;;;2.33;;
2474;SDS011;1248;48.694;10.160;2023-07-28T10:18:14;2.80;;;2.50;;
2474;SDS011;1248;48.694;10.160;2023-07-28T10:20:43;3.30;;;2.90;;
2474;SDS011;1248;48.694;10.160;2023-07-28T10:23:15;3.40;;;2.37;;
2474;SDS011;1248;48.694;10.160;2023-07-28T10:25:43;2.40;;;2.20;;
2474;SDS011;1248;48.694;10.160;2023-07-28T10:28:26;5.30;;;2.93;;
2474;SDS011;1248;48.694;10.160;2023-07-28T10:30:54;2.90;;;2.60;;
2474;SDS011;1248;48.694;10.160;2023-07-28T10:33:31;3.30;;;2.80;;
2474;SDS011;1248;48.694;10.160;2023-07-28T10:36:09;4.13;;;2.57;;
2474;SDS011;1248;48.694;10.160;2023-07-28T10:38:38;4.23;;;2.83;;
2474;SDS011;1248;48.694;10.160;2023-07-28T10:41:11;5.57;;;3.10;;
2474;SDS011;1248;48.694;10.160;2023-07-28T10:43:40;3.60;;;2.50;;
2474;SDS011;1248;48.694;10.160;2023-07-28T10:46:07;3.47;;;2.90;;
2474;SDS011;1248;48.694;10.160;2023-07-28T10:48:36;5.10;;;3.10;;
2474;SDS011;1248;48.694;10.160;2023-07-28T10:51:06;5.23;;;2.90;;
2474;SDS011;1248;48.694;10.160;2023-07-28T10:53:33;3.80;;;3.17;;
2474;SDS011;1248;48.694;10.160;2023-07-28T10:56:01;4.77;;;2.87;;
2474;SDS011;1248;48.694;10.160;2023-07-28T10:58:30;3.17;;;2.60;;
2474;SDS011;1248;48.694;10.160;2023-07-28T11:00:58;4.10;;;3.33;;
2474;SDS011;1248;48.694;10.160;2023-07-28T11:03:25;3.70;;;3.10;;
2474;SDS011;1248;48.694;10.160;2023-07-28T11:05:53;3.93;;;2.87;;
2474;SDS011;1248;48.694;10.160;2023-07-28T11:08:24;3.53;;;2.97;;
2474;SDS011;1248;48.694;10.160;2023-07-28T11:10:51;3.40;;;3.10;;
2474;SDS011;1248;48.694;10.160;2023-07-28T11:13:18;4.10;;;3.17;;
2474;SDS011;1248;48.694;10.160;2023-07-28T11:15:45;6.23;;;3.07;;
2474;SDS011;1248;48.694;10.160;2023-07-28T11:18:14;3.23;;;2.50;;
2474;SDS011;1248;48.694;10.160;2023-07-28T11:20:42;2.90;;;2.33;;
2474;SDS011;1248;48.694;10.160;2023-07-28T11:23:13;3.47;;;2.40;;
2474;SDS011;1248;48.694;10.160;2023-07-28T11:25:42;4.87;;;2.53;;
2474;SDS011;1248;48.694;10.160;2023-07-28T11:28:09;4.73;;;2.67;;
2474;SDS011;1248;48.694;10.160;2023-07-28T11:30:37;5.13;;;2.93;;
2474;SDS011;1248;48.694;10.160;2023-07-28T11:33:06;3.40;;;2.57;;
2474;SDS011;1248;48.694;10.160;2023-07-28T11:35:35;5.93;;;3.10;;
2474;SDS011;1248;48.694;10.160;2023-07-28T11:38:05;3.93;;;2.47;;
2474;SDS011;1248;48.694;10.160;2023-07-28T11:40:32;5.07;;;2.73;;
2474;SDS011;1248;48.694;10.160;2023-07-28T11:43:01;5.13;;;3.13;;
2474;SDS011;1248;48.694;10.160;2023-07-28T11:45:29;2.90;;;2.60;;
2474;SDS011;1248;48.694;10.160;2023-07-28T11:47:56;6.27;;;3.00;;
2474;SDS011;1248;48.694;10.160;2023-07-28T11:50:24;3.77;;;2.40;;
2474;SDS011;1248;48.694;10.160;2023-07-28T11:52:52;3.60;;;2.50;;
2474;SDS011;1248;48.694;10.160;2023-07-28T11:55:20;3.30;;;2.50;;
2474;SDS011;1248;48.694;10.160;2023-07-28T11:57:48;4.20;;;2.93;;
2474;SDS011;1248;48.694;10.160;2023-07-28T12:00:17;2.67;;;2.47;;
2474;SDS011;1248;48.694;10.160;2023-07-28T12:02:59;3.93;;;2.43;;
2474;SDS011;1248;48.694;10.160;2023-07-28T12:05:27;3.40;;;2.30;;
2474;SDS011;1248;48.694;10.160;2023-07-28T12:07:54;7.70;;;2.83;;
2474;SDS011;1248;48.694;10.160;2023-07-28T12:10:21;4.43;;;2.50;;
2474;SDS011;1248;48.694;10.160;2023-07-28T12:12:49;4.40;;;3.10;;
2474;SDS011;1248;48.694;10.160;2023-07-28T12:15:21;4.23;;;2.80;;
2474;SDS011;1248;48.694;10.160;2023-07-28T12:18:04;4.20;;;3.30;;
2474;SDS011;1248;48.694;10.160;2023-07-28T12:20:35;3.63;;;2.80;;
2474;SDS011;1248;48.694;10.160;2023-07-28T12:23:04;4.23;;;2.50;;
2474;SDS011;1248;48.694;10.160;2023-07-28T12:25:31;2.73;;;2.47;;
2474;SDS011;1248;48.694;10.160;2023-07-28T12:27:58;3.20;;;2.90;;
2474;SDS011;1248;48.694;10.160;2023-07-28T12:30:27;2.40;;;2.17;;
2474;SDS011;1248;48.694;10.160;2023-07-28T12:32:54;5.07;;;4.00;;
2474;SDS011;1248;48.694;10.160;2023-07-28T12:35:22;4.00;;;2.67;;
2474;SDS011;1248;48.694;10.160;2023-07-28T12:37:50;9.13;;;3.13;;
2474;SDS011;1248;48.694;10.160;2023-07-28T12:40:17;5.17;;;3.40;;
2474;SDS011;1248;48.694;10.160;2023-07-28T12:42:46;3.43;;;3.07;;
2474;SDS011;1248;48.694;10.160;2023-07-28T12:45:13;4.00;;;2.93;;
2474;SDS011;1248;48.694;10.160;2023-07-28T12:47:42;4.20;;;3.00;;
2474;SDS011;1248;48.694;10.160;2023-07-28T12:50:09;6.50;;;2.63;;
2474;SDS011;1248;48.694;10.160;2023-07-28T12:52:37;3.37;;;2.73;;
2474;SDS011;1248;48.694;10.160;2023-07-28T12:55:04;5.10;;;2.60;;
2474;SDS011;1248;48.694;10.160;2023-07-28T12:57:31;3.53;;;2.40;;
2474;SDS011;1248;48.694;10.160;2023-07-28T12:59:59;6.10;;;3.03;;
2474;SDS011;1248;48.694;10.160;2023-07-28T13:02:26;3.83;;;3.40;;
2474;SDS011;1248;48.694;10.160;2023-07-28T13:04:54;4.37;;;3.50;;
2474;SDS011;1248;48.694;10.160;2023-07-28T13:07:21;3.10;;;2.53;;
2474;SDS011;1248;48.694;10.160;2023-07-28T13:09:49;2.77;;;2.47;;
2474;SDS011;1248;48.694;10.160;2023-07-28T13:12:16;4.90;;;2.97;;
2474;SDS011;1248;48.694;10.160;2023-07-28T13:14:43;4.63;;;2.93;;
2474;SDS011;1248;48.694;10.160;2023-07-28T13:17:10;4.67;;;3.50;;
2474;SDS011;1248;48.694;10.160;2023-07-28T13:19:38;5.07;;;3.27;;
2474;SDS011;1248;48.694;10.160;2023-07-28T13:22:06;3.60;;;3.10;;
2474;SDS011;1248;48.694;10.160;2023-07-28T13:24:33;3.00;;;2.63;;
2474;SDS011;1248;48.694;10.160;2023-07-28T13:27:00;4.17;;;2.77;;
2474;SDS011;1248;48.694;10.160;2023-07-28T13:29:27;3.27;;;2.97;;
2474;SDS011;1248;48.694;10.160;2023-07-28T13:31:57;5.37;;;2.90;;
2474;SDS011;1248;48.694;10.160;2023-07-28T13:34:25;3.40;;;3.10;;
2474;SDS011;1248;48.694;10.160;2023-07-28T13:36:52;4.03;;;3.63;;
2474;SDS011;1248;48.694;10.160;2023-07-28T13:39:21;3.50;;;2.70;;
2474;SDS011;1248;48.694;10.160;2023-07-28T13:41:48;7.30;;;4.10;;
2474;SDS011;1248;48.694;10.160;2023-07-28T13:44:15;9.00;;;4.90;;
2474;SDS011;1248;48.694;10.160;2023-07-28T13:46:42;4.40;;;4.00;;
2474;SDS011;1248;48.694;10.160;2023-07-28T13:49:09;4.10;;;2.90;;
2474;SDS011;1248;48.694;10.160;2023-07-28T13:51:36;4.90;;;3.20;;
2474;SDS011;1248;48.694;10.160;2023-07-28T13:54:03;3.87;;;2.97;;
2474;SDS011;1248;48.694;10.160;2023-07-28T13:56:32;3.97;;;2.97;;
2474;SDS011;1248;48.694;10.160;2023-07-28T13:58:59;5.37;;;3.90;;
2474;SDS011;1248;48.694;10.160;2023-07-28T14:01:26;4.00;;;3.33;;
2474;SDS011;1248;48.694;10.160;2023-07-28T14:03:53;4.20;;;3.00;;
2474;SDS011;1248;48.694;10.160;2023-07-28T14:06:20;3.40;;;2.73;;
2474;SDS011;1248;48.694;10.160;2023-07-28T14:08:47;4.83;;;3.67;;
2474;SDS011;1248;48.694;10.160;2023-07-28T14:11:14;2.43;;;2.20;;
2474;SDS011;1248;48.694;10.160;2023-07-28T14:13:43;3.30;;;3.00;;
2474;SDS011;1248;48.694;10.160;2023-07-28T14:16:10;3.00;;;2.70;;
2474;SDS011;1248;48.694;10.160;2023-07-28T14:18:38;2.83;;;2.17;;
2474;SDS011;1248;48.694;10.160;2023-07-28T14:21:06;4.20;;;3.10;;
2474;SDS011;1248;48.694;10.160;2023-07-28T14:23:33;3.97;;;2.37;;
2474;SDS011;1248;48.694;10.160;2023-07-28T14:26:00;3.40;;;3.10;;
2474;SDS011;1248;48.694;10.160;2023-07-28T14:28:27;3.73;;;3.10;;
2474;SDS011;1248;48.694;10.160;2023-07-28T14:30:55;3.13;;;2.83;;
2474;SDS011;1248;48.694;10.160;2023-07-28T14:33:22;4.50;;;2.20;;
2474;SDS011;1248;48.694;10.160;2023-07-28T14:35:50;5.93;;;2.83;;
2474;SDS011;1248;48.694;10.160;2023-07-28T14:38:18;5.80;;;2.67;;
2474;SDS011;1248;48.694;10.160;2023-07-28T14:40:45;3.67;;;2.60;;
2474;SDS011;1248;48.694;10.160;2023-07-28T14:43:14;4.40;;;2.33;;
2474;SDS011;1248;48.694;10.160;2023-07-28T14:45:43;3.67;;;2.07;;
2474;SDS011;1248;48.694;10.160;2023-07-28T14:48:11;3.60;;;2.90;;
2474;SDS011;1248;48.694;10.160;2023-07-28T14:50:38;2.60;;;2.40;;
2474;SDS011;1248;48.694;10.160;2023-07-28T14:55:54;3.17;;;2.20;;
2474;SDS011;1248;48.694;10.160;2023-07-28T14:58:21;2.73;;;2.53;;
2474;SDS011;1248;48.694;10.160;2023-07-28T15:00:50;3.93;;;2.60;;
2474;SDS011;1248;48.694;10.160;2023-07-28T15:03:19;3.43;;;2.50;;
2474;SDS011;1248;48.694;10.160;2023-07-28T15:05:46;2.70;;;2.23;;
2474;SDS011;1248;48.694;10.160;2023-07-28T15:08:13;6.70;;;2.87;;